Hull, Wisconsin
Current Conditions -  °F | °C
As of 10:15 PM on Wednesday 22 Oct 2014 (Local Time) from KSTE Reporting Station
Clear Clear  
Wind Chill: 33°   Ceiling: Unl
Heat Index: 37°   Visibility: 10mi
Dew Point: 33°   Wind: 5mph
Humidity: 84%   Direction: 120°ESE
Pressure: 30.21"   Gusts: NA
Location:  44.5531°N, 89.5186°W
Report Text: KSTE 230315Z AUTO 12004KT 10SM CLR 03/00 A3021 RMK AO2 T00270003
Loading
Personal Weather Stations






























Interactive Weather Map
Tropical Storm Tracking
New forecast layout! Learn more

10-Day Weather Forecast

Advertisements
Track Severe Weather on mobile